createdAt,value
2019-03-16T00:02:22.257Z,55.10
2019-03-16T00:09:38.598Z,55.40
2019-03-16T00:12:42.157Z,54.80
2019-03-16T00:15:45.296Z,54.80
2019-03-16T00:26:28.665Z,55.50
2019-03-16T00:40:28.303Z,54.80
2019-03-16T00:43:49.128Z,54.70
2019-03-16T00:46:57.252Z,54.60
2019-03-16T00:50:20.485Z,54.60
2019-03-16T00:53:26.576Z,54.60
2019-03-16T00:56:32.035Z,54.70
2019-03-16T00:59:39.681Z,54.80
2019-03-16T01:02:57.884Z,54.70
2019-03-16T01:06:08.833Z,54.80
2019-03-16T01:09:19.511Z,54.90
2019-03-16T01:12:56.663Z,54.80
2019-03-16T01:16:02.029Z,55.50
2019-03-16T01:38:02.612Z,54.70
2019-03-16T01:41:10.511Z,54.70
2019-03-16T01:44:15.403Z,54.60
2019-03-16T01:47:33.210Z,54.80
2019-03-16T01:54:07.625Z,54.90
2019-03-16T01:57:19.277Z,54.90
2019-03-16T02:00:21.077Z,55.00
2019-03-16T02:03:33.076Z,55.00
2019-03-16T02:13:59.562Z,54.90
2019-03-16T02:20:33.083Z,55.00
2019-03-16T02:24:18.977Z,55.00
2019-03-16T02:31:30.380Z,55.00
2019-03-16T02:34:33.117Z,54.90
2019-03-16T02:37:38.514Z,55.00
2019-03-16T02:41:34.743Z,55.00
2019-03-16T02:48:30.196Z,55.00
2019-03-16T02:52:23.863Z,55.00
2019-03-16T02:57:54.843Z,55.00
2019-03-16T03:02:28.091Z,55.00
2019-03-16T03:09:38.017Z,55.00
2019-03-16T03:16:07.885Z,54.90
2019-03-16T03:24:09.011Z,54.90
2019-03-16T03:30:47.553Z,54.80
2019-03-16T03:38:08.538Z,54.80
2019-03-16T03:45:29.209Z,54.90
2019-03-16T03:49:10.343Z,54.80
2019-03-16T03:52:26.542Z,54.80
2019-03-16T03:56:04.134Z,54.80
2019-03-16T04:03:10.663Z,54.60
2019-03-16T04:07:19.560Z,54.90
2019-03-16T04:11:22.419Z,54.90
2019-03-16T04:15:14.861Z,54.90
2019-03-16T04:26:03.050Z,55.10
2019-03-16T04:29:13.439Z,55.20
2019-03-16T04:32:04.242Z,55.30
2019-03-16T04:35:14.442Z,55.20
2019-03-16T04:38:11.423Z,55.20
2019-03-16T04:41:17.440Z,55.20
2019-03-16T04:44:03.056Z,55.30
2019-03-16T04:46:43.602Z,55.20
2019-03-16T04:50:15.360Z,55.40
2019-03-16T04:53:10.637Z,55.30
2019-03-16T04:55:52.750Z,55.20
2019-03-16T04:58:51.530Z,55.40
2019-03-16T05:01:53.660Z,55.30
2019-03-16T05:04:42.766Z,55.40
2019-03-16T05:07:28.563Z,55.60
2019-03-16T05:10:43.751Z,55.60
2019-03-16T05:17:05.830Z,55.60
2019-03-16T05:24:21.198Z,55.40
2019-03-16T05:37:40.421Z,55.30
2019-03-16T05:40:15.853Z,55.10
2019-03-16T05:42:51.236Z,55.10
2019-03-16T05:46:02.604Z,55.20
2019-03-16T05:48:45.877Z,55.20
2019-03-16T05:52:05.505Z,55.20
2019-03-16T05:55:52.660Z,55.20
2019-03-16T06:06:42.555Z,54.90
2019-03-16T06:14:17.963Z,55.00
2019-03-16T06:32:43.152Z,54.80
2019-03-16T06:35:49.907Z,54.80
2019-03-16T06:38:36.548Z,54.80
2019-03-16T06:41:18.790Z,54.90
2019-03-16T06:44:41.540Z,54.90
2019-03-16T06:47:23.169Z,54.90
2019-03-16T06:50:16.058Z,54.80
2019-03-16T06:56:08.015Z,55.10
2019-03-16T06:58:51.943Z,55.00
2019-03-16T07:01:48.291Z,54.70
2019-03-16T07:04:49.756Z,54.80
2019-03-16T07:07:32.969Z,54.80
2019-03-16T07:10:36.709Z,54.70
2019-03-16T07:13:29.756Z,54.60
2019-03-16T07:16:12.144Z,54.70
2019-03-16T07:18:59.023Z,54.90
2019-03-16T07:21:35.959Z,55.00
2019-03-16T07:24:16.728Z,54.80
2019-03-16T07:27:00.737Z,54.80
2019-03-16T07:29:41.214Z,54.90
2019-03-16T07:32:24.348Z,54.90
2019-03-16T07:35:03.888Z,55.00
2019-03-16T07:41:49.565Z,55.00
2019-03-16T07:45:09.155Z,54.90
2019-03-16T07:47:45.657Z,54.90
2019-03-16T07:50:24.810Z,54.80
2019-03-16T07:53:02.305Z,54.70
2019-03-16T07:55:48.631Z,54.70
2019-03-16T07:58:36.621Z,54.70
2019-03-16T08:01:43.908Z,54.70
2019-03-16T08:04:23.313Z,54.80
2019-03-16T08:07:26.342Z,54.70
2019-03-16T08:10:25.386Z,54.80
2019-03-16T08:13:21.549Z,54.90
2019-03-16T08:16:50.713Z,55.00
2019-03-16T08:19:49.397Z,55.20
2019-03-16T08:22:27.147Z,55.30
2019-03-16T08:25:11.965Z,55.50
2019-03-16T08:27:54.560Z,55.50
2019-03-16T08:30:44.204Z,55.50
2019-03-16T08:33:42.934Z,55.50
2019-03-16T08:37:00.175Z,55.40
2019-03-16T08:45:19.016Z,55.10
2019-03-16T08:48:22.732Z,54.70
2019-03-16T08:51:43.485Z,54.60
2019-03-16T08:54:23.609Z,54.50
2019-03-16T08:57:09.915Z,54.60
2019-03-16T09:00:03.777Z,54.70
2019-03-16T09:02:45.065Z,54.90
2019-03-16T09:05:30.057Z,54.90
2019-03-16T09:08:15.488Z,55.00
2019-03-16T09:23:18.201Z,55.00
2019-03-16T09:43:17.300Z,55.00
2019-03-16T10:26:50.469Z,55.00
2019-03-16T11:21:23.995Z,53.90
2019-03-16T13:17:07.414Z,52.10
2019-03-16T14:11:12.364Z,47.20
2019-03-16T14:23:54.829Z,46.80
2019-03-16T17:52:18.251Z,43.80
